Terminal Aerodrome Forecast
Issued by NWS Louisville, KY

Home | Current Version | Previous Version | Text Only | Print | Product List | Glossary On
Versions: 1 2 3 4 5 6 7 8 9 10 11 12 13 14 15 16
000
FTUS43 KLMK 161700
TAFBWG
TAF
KBWG 161739Z 1618/1718 33005KT P6SM BKN025
     FM161900 01005KT P6SM BKN035
     FM170100 00000KT P6SM SKC
     FM170800 00000KT 4SM BR SKC
     FM171000 00000KT 2SM BR SCT002
     FM171300 VRB04KT P6SM FEW040=

USA.gov is the U.S. government's official web portal to all federal, state and local government web resources and services.